Terminal Aerodrome Forecast
Issued by NWS

Home | Current Version | Previous Version | Text Only | Print | Product List | Glossary On
Versions: 1 2 3 4 5 6 7 8 9 10 11 12
000
FTUS45 KGJT 170524
TAFMTJ
TAF
KMTJ 170524Z 1706/1806 14008KT P6SM SKC
     FM171500 VRB03KT P6SM SKC
     FM171800 35006KT P6SM SCT250
     FM180200 14006KT P6SM SCT250=

USA.gov is the U.S. government's official web portal to all federal, state and local government web resources and services.